• Join FlightAware (Why Join?)
  • Login
  • US Flag 
12:22PM EDT


 

Airport Tracker/Info


-or-


 

Live Flight TrackerFlight Track Log ✈ TAM3609 ✈ 03-Oct-2013 ✈ SBEG / MAO - SBBR / BSB

Flight Track Log - Related Links

Times and Time Zones

All times are in EDT time to prevent confusion due to time zone crossing. See the TAM3609 flight status page for this flight to view local times or setup timezone preferences in your user account.

Time Position Orientation Groundspeed Altitude Reporting Facility
EDT Latitude Longitude Course Direction KTS MPH feet Rate Location/Type
03:07PM -6.9510 -56.4718 138° Southeast  Level Estimated
03:08PM -7.0377 -56.3918 137° Southeast  Level Estimated
03:09PM -7.1244 -56.3117 137° Southeast  Level Estimated
03:10PM -7.2111 -56.2315 137° Southeast  Level Estimated
03:11PM -7.2977 -56.1514 137° Southeast  Level Estimated
03:12PM -7.3843 -56.0712 137° Southeast  Level Estimated
03:13PM -7.4710 -55.9910 137° Southeast  Level Estimated
03:14PM -7.5576 -55.9107 137° Southeast  Level Estimated
03:15PM -7.6442 -55.8305 137° Southeast  Level Estimated
03:16PM -7.7307 -55.7501 137° Southeast  Level Estimated
03:17PM -7.8173 -55.6698 137° Southeast  Level Estimated
03:18PM -7.9039 -55.5894 137° Southeast  Level Estimated
03:19PM -7.9904 -55.5090 137° Southeast  Level Estimated
03:20PM -8.0769 -55.4286 137° Southeast  Level Estimated
03:21PM -8.1634 -55.3481 137° Southeast  Level Estimated
03:22PM -8.2499 -55.2676 137° Southeast  Level Estimated
03:23PM -8.3364 -55.1870 137° Southeast  Level Estimated
03:24PM -8.4228 -55.1064 137° Southeast  Level Estimated
03:25PM -8.5092 -55.0258 137° Southeast  Level Estimated
03:26PM -8.5957 -54.9451 137° Southeast  Level Estimated
03:27PM -8.6821 -54.8644 137° Southeast  Level Estimated
03:28PM -8.7684 -54.7837 137° Southeast  Level Estimated
03:29PM -8.8548 -54.7029 137° Southeast  Level Estimated
03:30PM -8.9412 -54.6221 137° Southeast  Level Estimated
03:31PM -9.0275 -54.5413 137° Southeast  Level Estimated
03:32PM -9.1138 -54.4604 137° Southeast  Level Estimated
03:33PM -9.2001 -54.3795 137° Southeast  Level Estimated
03:34PM -9.2864 -54.2985 137° Southeast  Level Estimated
03:35PM -9.3727 -54.2175 137° Southeast  Level Estimated
03:36PM -9.4589 -54.1365 137° Southeast  Level Estimated
03:37PM -9.5451 -54.0554 137° Southeast  Level Estimated
03:38PM -9.6313 -53.9743 137° Southeast  Level Estimated
03:39PM -9.7175 -53.8931 137° Southeast  Level Estimated
03:40PM -9.8037 -53.8119 137° Southeast  Level Estimated
03:41PM -9.8898 -53.7307 137° Southeast  Level Estimated
03:42PM -9.9760 -53.6494 137° Southeast  Level Estimated
03:43PM -10.0621 -53.5680 137° Southeast  Level Estimated
03:44PM -10.1482 -53.4866 137° Southeast  Level Estimated
03:45PM -10.2342 -53.4052 137° Southeast  Level Estimated
03:46PM -10.3203 -53.3237 137° Southeast  Level Estimated
03:47PM -10.4063 -53.2422 137° Southeast  Level Estimated
03:48PM -10.4923 -53.1607 137° Southeast  Level Estimated
03:49PM -10.5783 -53.0791 137° Southeast  Level Estimated
03:50PM -10.6643 -52.9974 137° Southeast  Level Estimated
03:51PM -10.7502 -52.9157 137° Southeast  Level Estimated
03:52PM -10.8362 -52.8340 137° Southeast  Level Estimated
03:53PM -10.9221 -52.7522 137° Southeast  Level Estimated
03:54PM -11.0079 -52.6704 137° Southeast  Level Estimated
03:55PM -11.0938 -52.5885 137° Southeast  Level Estimated
03:56PM -11.1796 -52.5066 137° Southeast  Level Estimated
03:57PM -11.2654 -52.4246 137° Southeast  Level Estimated
03:58PM -11.3512 -52.3425 137° Southeast  Level Estimated
03:59PM -11.4370 -52.2605 137° Southeast  Level Estimated
04:00PM -11.5228 -52.1783 137° Southeast  Level Estimated
04:01PM -11.6085 -52.0962 137° Southeast  Level Estimated
04:02PM -11.6942 -52.0139 137° Southeast  Level Estimated
04:03PM -11.7799 -51.9316 137° Southeast  Level Estimated
04:04PM -11.8655 -51.8493 137° Southeast  Level Estimated
04:05PM -11.9511 -51.7669 137° Southeast  Level Estimated
04:06PM -12.0367 -51.6845 137° Southeast  Level Estimated
04:07PM -12.1223 -51.6020 137° Southeast  Level Estimated
04:08PM -12.2079 -51.5195 137° Southeast  Level Estimated
04:09PM -12.2934 -51.4369 137° Southeast  Level Estimated
04:10PM -12.3789 -51.3542 137° Southeast  Level Estimated
04:11PM -12.4644 -51.2715 137° Southeast  Level Estimated
04:12PM -12.5499 -51.1888 137° Southeast  Level Estimated
04:13PM -12.6353 -51.1060 137° Southeast  Level Estimated
04:14PM -12.7207 -51.0231 137° Southeast  Level Estimated
04:15PM -12.8061 -50.9402 137° Southeast  Level Estimated
04:16PM -12.8914 -50.8572 137° Southeast  Level Estimated
04:17PM -12.9768 -50.7742 137° Southeast  Level Estimated
04:18PM -13.0621 -50.6911 137° Southeast  Level Estimated
04:19PM -13.1473 -50.6079 136° Southeast  Level Estimated
04:20PM -13.2326 -50.5247 136° Southeast  Level Estimated
04:21PM -13.3178 -50.4414 136° Southeast  Level Estimated
04:22PM -13.4030 -50.3581 136° Southeast  Level Estimated
04:23PM -13.4882 -50.2747 136° Southeast  Level Estimated
04:24PM -13.5733 -50.1913 136° Southeast  Level Estimated
04:25PM -13.6584 -50.1078 136° Southeast  Level Estimated
04:26PM -13.7435 -50.0243 136° Southeast  Level Estimated
04:27PM -13.8286 -49.9406 136° Southeast  Level Estimated
04:28PM -13.9136 -49.8569 136° Southeast  Level Estimated
04:29PM -13.9986 -49.7732 136° Southeast  Level Estimated
04:30PM -14.0836 -49.6894 136° Southeast  Level Estimated
04:31PM -14.1685 -49.6055 136° Southeast  Level Estimated
04:32PM -14.2534 -49.5216 136° Southeast  Level Estimated
04:33PM -14.3383 -49.4376 136° Southeast  Level Estimated
04:34PM -14.4231 -49.3535 136° Southeast  Level Estimated
04:35PM -14.5080 -49.2694 136° Southeast  Level Estimated
04:36PM -14.5927 -49.1852 136° Southeast  Level Estimated
04:37PM -14.6775 -49.1010 136° Southeast  Level Estimated
04:38PM -14.7622 -49.0167 136° Southeast  Level Estimated
04:39PM -14.8469 -48.9323 136° Southeast  Level Estimated
04:40PM -14.9316 -48.8478 136° Southeast  Level Estimated
04:41PM -15.0162 -48.7633 136° Southeast  Level Estimated
04:42PM -15.1009 -48.6787 136° Southeast  Level Estimated
04:43PM -15.1854 -48.5941 136° Southeast  Level Estimated
04:44PM -15.2700 -48.5093 136° Southeast  Level Estimated
04:45PM -15.3545 -48.4246 136° Southeast  Level Estimated
04:46PM -15.4390 -48.3397 136° Southeast  Level Estimated
04:47PM -15.5234 -48.2548 136° Southeast  Level Estimated
04:48PM -15.6079 -48.1698 136° Southeast  Level Estimated
04:49PM -15.6922 -48.0847 136° Southeast  Level Estimated
04:50PM -15.7766 -47.9996 136° Southeast  Level Estimated
04:51PM -15.8609 -47.9144 136° Southeast  Level Estimated
04:52PM -15.8626 -47.9127 136° Southeast  Level Estimated
04:53PM -15.8626 -47.9127 128° Southeast  Level Estimated
04:54PM -15.8626 -47.9127 128° Southeast  Level Estimated
04:55PM -15.8626 -47.9127 128° Southeast  Level Estimated
04:56PM -15.8626 -47.9127 128° Southeast  Level Estimated
04:57PM -15.8626 -47.9127 128° Southeast  Level Estimated
04:58PM -15.8626 -47.9127 128° Southeast  Level Estimated
04:59PM -15.8626 -47.9127 128° Southeast  Level Estimated
05:00PM -15.8626 -47.9127 128° Southeast  Level Estimated
05:01PM -15.8626 -47.9127 128° Southeast  Level Estimated
05:02PM -15.8626 -47.9127 128° Southeast  Level Estimated
05:03PM -15.8626 -47.9127 128° Southeast  Level Estimated
05:04PM -15.8626 -47.9127 128° Southeast  Level Estimated
05:05PM -15.8626 -47.9127 128° Southeast  Level Estimated
05:06PM -15.8626 -47.9127 128° Southeast  Level Estimated
05:07PM -15.8626 -47.9127 128° Southeast  Level Estimated